Nearby METAR Reports

 

KTEB - Teterboro, New Jersey, USA
Distance from station: ENE 2mi, 4km
Updated: 02/22/2018 4:51am
Light rain, Overcast
Light rain, Overcast
 Wind from N
Wind: N 14 mph , 22 km/h, Gust: 28 mph , 44 km/h
Temperature: 46°F , 8°C
Wind Chill: 40°F , 4°C
Dew Point: 37°F , 3°C
Humidity: 71%
Barometer: 30.55 inHg , 1034.5 hPa
Summary: Light rain
Clouds: Overcast
Visibility: 10 miles , 16 km
Cloud details: Overcast 5000 ft
2018/02/22 09:51 KTEB 220951Z 01012G24KT 10SM -RA OVC050 08/03 A3055 RMK AO2 RAB22 SLP344 P0000 T00780028
KNYC - Nyc/Central Park, New York, USA
Distance from station: SE 8mi, 13km
Updated: 02/22/2018 4:51am
Overcast
Overcast
 Wind from N
Wind: N 8 mph , 13 km/h
Temperature: 48°F , 9°C
Wind Chill: 44°F , 7°C
Dew Point: 37°F , 3°C
Humidity: 66%
Barometer: 30.57 inHg , 1035.2 hPa
Clouds: Overcast
Visibility: 10 miles , 16 km
Cloud details: Overcast 5000 ft
2018/02/22 09:51 KNYC 220951Z AUTO 36007KT 10SM OVC050 09/03 A3057 RMK AO2 SLP341 T00890028 $
 
KCDW - Caldwell, New Jersey, USA
Distance from station: WNW 10mi, 17km
Updated: 02/22/2018 4:53am
Rain, Mist, Overcast
Rain, Mist, Overcast
 Wind from NE
Wind: NE 6 mph , 9 km/h
Temperature: 43°F , 6°C
Wind Chill: 39°F , 4°C
Dew Point: 39°F , 4°C
Humidity: 87%
Barometer: 30.56 inHg , 1034.9 hPa
Summary: Rain, Mist
Clouds: Overcast
Visibility: 4 miles , 6 km
Cloud details: Mostly cloudy 4500 ft
Overcast 6000 ft
2018/02/22 09:53 KCDW 220953Z AUTO 04005KT 4SM RA BR BKN045 OVC060 06/04 A3056 RMK AO2 RAB04 SLP354 P0004 T00560044 TSNO
KLGA - Nyc/La Guardia, New York, USA
Distance from station: ESE 12mi, 19km
Updated: 02/22/2018 4:51am
Overcast
Overcast
 Wind from N
Wind: N 9 mph , 15 km/h
Temperature: 48°F , 9°C
Wind Chill: 44°F , 7°C
Dew Point: 36°F , 2°C
Humidity: 62%
Barometer: 30.53 inHg , 1033.9 hPa
Clouds: Overcast
Visibility: 10 miles , 16 km
Cloud details: Overcast 5000 ft
2018/02/22 09:51 KLGA 220951Z 35008KT 10SM OVC050 09/02 A3053 RMK AO2 RAB30E43 SLP339 P0000 T00940022 $
 
KEWR - Newark, New Jersey, USA
Distance from station: SSW 12mi, 20km
Updated: 02/22/2018 4:51am
Light rain, Overcast
Light rain, Overcast
 Wind from N
Wind: N 18 mph , 30 km/h
Temperature: 48°F , 9°C
Wind Chill: 41°F , 5°C
Dew Point: 37°F , 3°C
Humidity: 66%
Barometer: 30.54 inHg , 1034.2 hPa
Summary: Light rain
Clouds: Overcast
Visibility: 10 miles , 16 km
Cloud details: Overcast 5000 ft
2018/02/22 09:51 KEWR 220951Z 01016KT 10SM -RA OVC050 09/03 A3054 RMK AO2 RAB26 SLP340 P0000 T00940028 $
KMMU - Morristown Muni, New Jersey, USA
Distance from station: WSW 18mi, 29km
Updated: 02/22/2018 5:15am
Overcast
Overcast
 Wind from NE
Wind: NE 9 mph , 15 km/h
Temperature: 43°F , 6°C
Wind Chill: 38°F , 3°C
Dew Point: 39°F , 4°C
Humidity: 87%
Barometer: 30.54 inHg , 1034.2 hPa
Clouds: Overcast
Visibility: 10 miles , 16 km
Cloud details: Partly cloudy 4400 ft
Overcast 5000 ft
2018/02/22 10:15 KMMU 221015Z AUTO 04008KT 10SM SCT044 OVC050 06/04 A3054 RMK AO2
 
KJFK - Nyc/Jfk Arpt, New York, USA
Distance from station: SE 23mi, 36km
Updated: 02/22/2018 4:51am
Overcast
Overcast
 Wind from N
Wind: N 14 mph , 22 km/h
Temperature: 48°F , 9°C
Wind Chill: 42°F , 6°C
Dew Point: 36°F , 2°C
Humidity: 62%
Barometer: 30.53 inHg , 1033.9 hPa
Clouds: Overcast
Visibility: 10 miles , 16 km
Cloud details: Overcast 4900 ft
2018/02/22 09:51 KJFK 220951Z 01012KT 10SM OVC049 09/02 A3053 RMK AO2 SLP338 T00940022
KHPN - White Plains, New York, USA
Distance from station: NE 25mi, 40km
Updated: 02/22/2018 4:56am
Light rain, Mist, Overcast
Light rain, Mist, Overcast
 Wind from NNW
Wind: NNW 10 mph , 17 km/h
Temperature: 43°F , 6°C
Wind Chill: 37°F , 3°C
Dew Point: 37°F , 3°C
Humidity: 81%
Barometer: 30.54 inHg , 1034.2 hPa
Summary: Light rain, Mist
Clouds: Overcast
Visibility: 6 miles , 10 km
Cloud details: Overcast 4800 ft
2018/02/22 09:56 KHPN 220956Z 34009KT 6SM -RA BR OVC048 06/03 A3054 RMK AO2 RAB05 SLP341 P0002 T00560033
 
KSMQ - Somerville, New Jersey, USA
Distance from station: WSW 34mi, 55km
Updated: 02/22/2018 4:53am
Overcast
Overcast
 Wind from N
Wind: N 7 mph , 11 km/h
Temperature: 46°F , 8°C
Wind Chill: 42°F , 6°C
Dew Point: 39°F , 4°C
Humidity: 76%
Barometer: 30.49 inHg , 1032.5 hPa
Clouds: Overcast
Visibility: 10 miles , 16 km
Cloud details: Overcast 4800 ft
2018/02/22 09:53 KSMQ 220953Z AUTO 01006KT 10SM OVC048 08/04 A3049 RMK AO2 RAB28E38 SLP325 P0000 T00830039
K12N - Andover, New Jersey, USA
Distance from station: WNW 36mi, 57km
Updated: 02/22/2018 4:54am

 Wind from N
Wind: N 3 mph , 6 km/h
Temperature: 43°F , 6°C
Dew Point: 39°F , 4°C
Humidity: 87%
Barometer: 30.52 inHg , 1033.5 hPa
2018/02/22 09:54 K12N 220954Z AUTO 35003KT 06/04 A3052 RMK AO1 SLP333 T00560044
 
KFRG - Farmingdale, New York, USA
Distance from station: ESE 36mi, 58km
Updated: 02/22/2018 4:53am
Overcast
Overcast
 Wind from N
Wind: N 13 mph , 20 km/h
Temperature: 48°F , 9°C
Wind Chill: 43°F , 6°C
Dew Point: 37°F , 3°C
Humidity: 66%
Barometer: 30.52 inHg , 1033.5 hPa
Clouds: Overcast
Visibility: 10 miles , 16 km
Cloud details: Overcast 4900 ft
2018/02/22 09:53 KFRG 220953Z AUTO 01011KT 10SM OVC049 09/03 A3052 RMK AO2 SLP334 T00890033
KFWN - Sussex, New Jersey, USA
Distance from station: NW 37mi, 60km
Updated: 02/22/2018 4:53am
Overcast
Overcast
 Wind from NE
Wind: NE 5 mph , 7 km/h
Temperature: 45°F , 7°C
Wind Chill: 42°F , 6°C
Dew Point: 36°F , 2°C
Humidity: 71%
Barometer: 30.54 inHg , 1034.2 hPa
Clouds: Overcast
Visibility: 10 miles , 16 km
Cloud details: Overcast 5500 ft
2018/02/22 09:53 KFWN 220953Z AUTO 04004KT 10SM OVC055 07/02 A3054 RMK AO2 SLP341 T00720017
 
KSWF - Newburgh/Stewart, New York, USA
Distance from station: 0 45mi, 72km
Updated: 02/22/2018 4:45am
Overcast
Overcast
 Wind from NE
Wind: NE 12 mph , 19 km/h, Gust: 21 mph , 33 km/h
Temperature: 43°F , 6°C
Wind Chill: 37°F , 3°C
Dew Point: 34°F , 1°C
Humidity: 71%
Barometer: 30.57 inHg , 1035.2 hPa
Clouds: Overcast
Visibility: 10 miles , 16 km
Cloud details: Overcast 6000 ft
2018/02/22 09:45 KSWF 220945Z 05010G18KT 10SM OVC060 06/01 A3057
KMGJ - Montgomery, New York, USA
Distance from station: NNW 47mi, 75km
Updated: 02/22/2018 4:54am
Overcast
Overcast
 Wind from NE
Wind: NE 14 mph , 22 km/h
Temperature: 43°F , 6°C
Wind Chill: 36°F , 2°C
Dew Point: 30°F , -1°C
Humidity: 61%
Barometer: 30.54 inHg , 1034.2 hPa
Clouds: Overcast
Visibility: 10 miles , 16 km
Cloud details: Overcast 6000 ft
2018/02/22 09:54 KMGJ 220954Z AUTO 05012KT 10SM OVC060 06/M01 A3054 RMK AO2 SLP342 T00611006
 
KBLM - Belmar/Farmdale, New Jersey, USA
Distance from station: S 47mi, 76km
Updated: 02/22/2018 4:56am
Overcast
Overcast
 Wind from NNE
Wind: NNE 12 mph , 19 km/h
Temperature: 54°F , 12°C
Dew Point: 34°F , 1°C
Humidity: 47%
Barometer: 30.52 inHg , 1033.5 hPa
Clouds: Overcast
Visibility: 10 miles , 16 km
Cloud details: Overcast 3700 ft
2018/02/22 09:56 KBLM 220956Z AUTO 02010KT 10SM OVC037 12/01 A3052 RMK AO2 SLP339 T01220011
KDXR - Danbury, Connecticut, USA
Distance from station: NE 47mi, 76km
Updated: 02/22/2018 4:53am
Light rain, Overcast
Light rain, Overcast
 Wind from N
Wind: N 6 mph , 9 km/h
Temperature: 43°F , 6°C
Wind Chill: 39°F , 4°C
Dew Point: 36°F , 2°C
Humidity: 76%
Barometer: 30.56 inHg , 1034.9 hPa
Summary: Light rain
Clouds: Overcast
Visibility: 10 miles , 16 km
Cloud details: Overcast 5500 ft
2018/02/22 09:53 KDXR 220953Z AUTO 01005KT 10SM -RA OVC055 06/02 A3056 RMK AO2 RAB0854 SLP346 P0002 T00560022
 
KISP - Islip, New York, USA
Distance from station: E 52mi, 83km
Updated: 02/22/2018 4:56am
Overcast
Overcast
 Wind from N
Wind: N 12 mph , 19 km/h
Temperature: 48°F , 9°C
Wind Chill: 43°F , 6°C
Dew Point: 37°F , 3°C
Humidity: 66%
Barometer: 30.51 inHg , 1033.2 hPa
Clouds: Overcast
Visibility: 10 miles , 16 km
Cloud details: Overcast 5000 ft
2018/02/22 09:56 KISP 220956Z AUTO 36010KT 10SM OVC050 09/03 A3051 RMK AO2 SLP329 T00890028
KBDR - Bridgeport, Connecticut, USA
Distance from station: ENE 54mi, 87km
Updated: 02/22/2018 4:52am
Light rain, Overcast
Light rain, Overcast
 Wind from N
Wind: N 14 mph , 22 km/h
Temperature: 46°F , 8°C
Wind Chill: 40°F , 4°C
Dew Point: 34°F , 1°C
Humidity: 62%
Barometer: 30.53 inHg , 1033.9 hPa
Summary: Light rain
Clouds: Overcast
Visibility: 10 miles , 16 km
Cloud details: Overcast 5500 ft
2018/02/22 09:52 KBDR 220952Z AUTO 35012KT 10SM -RA OVC055 08/01 A3053 RMK AO2 RAB48 SLP338 P0000 T00830011
 
KTTN - Trenton, New Jersey, USA
Distance from station: SW 55mi, 88km
Updated: 02/22/2018 4:53am
Overcast
Overcast
 Wind from NNE
Wind: NNE 9 mph , 15 km/h
Temperature: 50°F , 10°C
Wind Chill: 46°F , 8°C
Dew Point: 36°F , 2°C
Humidity: 58%
Barometer: 30.48 inHg , 1032.2 hPa
Clouds: Overcast
Visibility: 10 miles , 16 km
Cloud details: Overcast 4400 ft
2018/02/22 09:53 KTTN 220953Z AUTO 03008KT 10SM OVC044 10/02 A3048 RMK AO2 SLP316 T01000022
KPOU - Poughkeepsie, New York, USA
Distance from station: N 55mi, 89km
Updated: 02/22/2018 4:53am
Overcast
Overcast
 Wind from NNE
Wind: NNE 12 mph , 19 km/h
Temperature: 43°F , 6°C
Wind Chill: 37°F , 3°C
Dew Point: 30°F , -1°C
Humidity: 61%
Barometer: 30.57 inHg , 1035.2 hPa
Clouds: Overcast
Visibility: 10 miles , 16 km
Cloud details: Overcast 6500 ft
2018/02/22 09:53 KPOU 220953Z AUTO 02010KT 10SM OVC065 06/M01 A3057 RMK AO2 SLP348 T00611011
 
KNEL - Lakehurst Nas, New Jersey, USA
Distance from station: SSW 59mi, 95km
Updated: 02/22/2018 4:00am
NOT Current
Overcast
Overcast
 Wind from N
Wind: N 5 mph , 7 km/h
Temperature: 57°F , 14°C
Dew Point: 43°F , 6°C
Humidity: 59%
Barometer: 30.46 inHg , 1031.5 hPa
Clouds: Overcast
Visibility: 10 miles , 16 km
Cloud details: Overcast 3900 ft
2018/02/22 09:00 KNEL 220900Z AUTO 01004KT 10SM OVC039 14/06 A3046 RMK AO2 SLP313 6//// T01390061 51018 PNO $
KWRI - Wrightst/Mcguire, New Jersey, USA
Distance from station: SSW 63mi, 102km
Updated: 02/22/2018 4:56am
Overcast
Overcast
 Wind from NE
Wind: NE 9 mph , 15 km/h
Temperature: 54°F , 12°C
Dew Point: 39°F , 4°C
Humidity: 58%
Barometer: 30.46 inHg , 1031.5 hPa
Clouds: Overcast
Visibility: 10 miles , 16 km
Cloud details: Overcast 3700 ft
2018/02/22 09:56 KWRI 220956Z AUTO 04008KT 10SM OVC037 12/04 A3046 RMK AO2 SLP314 T01170044
 
KHWV - Shirley, New York, USA
Distance from station: E 64mi, 103km
Updated: 02/22/2018 4:56am
Light rain, Overcast
Light rain, Overcast
 Wind from N
Wind: N 14 mph , 22 km/h, Gust: 22 mph , 35 km/h
Temperature: 48°F , 9°C
Wind Chill: 42°F , 6°C
Dew Point: 37°F , 3°C
Humidity: 66%
Barometer: 30.51 inHg , 1033.2 hPa
Summary: Light rain
Clouds: Overcast
Visibility: 10 miles , 16 km
Cloud details: Overcast 4900 ft
2018/02/22 09:56 KHWV 220956Z AUTO 36012G19KT 10SM -RA OVC049 09/03 A3051 RMK AO2 RAB48 SLP332 P0000 T00890033
KMJX - Toms River, New Jersey, USA
Distance from station: S 64mi, 104km
Updated: 02/22/2018 4:56am
Overcast
Overcast
 Wind from NNE
Wind: NNE 9 mph , 15 km/h
Temperature: 57°F , 14°C
Dew Point: 45°F , 7°C
Humidity: 63%
Barometer: 30.50 inHg , 1032.8 hPa
Clouds: Overcast
Visibility: 10 miles , 16 km
Cloud details: Overcast 3600 ft
2018/02/22 09:56 KMJX 220956Z AUTO 03008KT 10SM OVC036 14/07 A3050 RMK AO2 SLP333 T01390072
 
KDYL - Doylestown, Pennsylvania, USA
Distance from station: SW 65mi, 104km
Updated: 02/22/2018 4:54am
Overcast
Overcast
 Wind from NNE
Wind: NNE 9 mph , 15 km/h
Temperature: 48°F , 9°C
Wind Chill: 44°F , 7°C
Dew Point: 36°F , 2°C
Humidity: 62%
Barometer: 30.48 inHg , 1032.2 hPa
Clouds: Overcast
Visibility: 10 miles , 16 km
Cloud details: Overcast 4000 ft
2018/02/22 09:54 KDYL 220954Z AUTO 02008KT 10SM OVC040 09/02 A3048 RMK AO2 SLP321 T00890017 $
KOXC - Oxford/Waterbury, Connecticut, USA
Distance from station: NE 65mi, 105km
Updated: 02/22/2018 4:51am
Light rain, Overcast
Light rain, Overcast
 Wind from N
Wind: N 7 mph , 11 km/h
Temperature: 41°F , 5°C
Wind Chill: 36°F , 2°C
Dew Point: 37°F , 3°C
Humidity: 87%
Barometer: 30.53 inHg , 1033.9 hPa
Summary: Light rain
Clouds: Overcast
Visibility: 10 miles , 16 km
Cloud details: Overcast 5500 ft
2018/02/22 09:51 KOXC 220951Z AUTO 35006KT 10SM -RA OVC055 05/03 A3053 RMK AO2 RAB07 SLP350 P0001 T00500028
 
KMSV - Monticello, New York, USA
Distance from station: NNW 69mi, 111km
Updated: 02/22/2018 4:56am
Overcast
Overcast
 Wind from NNW
Wind: NNW 6 mph , 9 km/h
Temperature: 37°F , 3°C
Wind Chill: 32°F , 0°C
Dew Point: 32°F , 0°C
Humidity: 81%
Barometer: 30.52 inHg , 1033.5 hPa
Clouds: Overcast
Visibility: 10 miles , 16 km
Cloud details: Overcast 6000 ft
2018/02/22 09:56 KMSV 220956Z AUTO 34005KT 10SM OVC060 03/00 A3052 RMK AO2 SLP340 T00280000
KHVN - New Haven/Tweed, Connecticut, USA
Distance from station: ENE 70mi, 112km
Updated: 02/22/2018 4:53am
Overcast
Overcast
 Wind from N
Wind: N 10 mph , 17 km/h
Temperature: 46°F , 8°C
Wind Chill: 41°F , 5°C
Dew Point: 36°F , 2°C
Humidity: 66%
Barometer: 30.53 inHg , 1033.9 hPa
Clouds: Overcast
Visibility: 10 miles , 16 km
Cloud details: Overcast 6000 ft
2018/02/22 09:53 KHVN 220953Z AUTO 35009KT 10SM OVC060 08/02 A3053 RMK AO2 RAB14E40 SLP337 P0001 T00830022
 
KMPO - Mt. Pocono, Pennsylvania, USA
Distance from station: WNW 70mi, 113km
Updated: 02/22/2018 4:53am
Overcast
Overcast
 Wind from N
Wind: N 13 mph , 20 km/h
Temperature: 36°F , 2°C
Wind Chill: 27°F , -3°C
Dew Point: 32°F , 0°C
Humidity: 87%
Barometer: 30.47 inHg , 1031.8 hPa
Clouds: Overcast
Visibility: 10 miles , 16 km
Cloud details: Overcast 3900 ft
2018/02/22 09:53 KMPO 220953Z AUTO 35011KT 10SM OVC039 02/00 A3047 RMK AO2 RAB40E49 SLP322 P0000 T00220000
KPNE - Philadelphia/Ne, Pennsylvania, USA
Distance from station: SW 72mi, 116km
Updated: 02/22/2018 4:54am
Overcast
Overcast
 Wind from NNE
Wind: NNE 13 mph , 20 km/h
Temperature: 54°F , 12°C
Dew Point: 36°F , 2°C
Humidity: 51%
Barometer: 30.50 inHg , 1032.8 hPa
Clouds: Overcast
Visibility: 10 miles , 16 km
Cloud details: Overcast 4400 ft
2018/02/22 09:54 KPNE 220954Z AUTO 03011KT 10SM OVC044 12/02 A3050 RMK AO2 SLP328 T01170022
 
KABE - Allentown, Pennsylvania, USA
Distance from station: W 73mi, 117km
Updated: 02/22/2018 4:51am
Overcast
Overcast
 Wind from ENE
Wind: ENE 7 mph , 11 km/h
Temperature: 45°F , 7°C
Wind Chill: 41°F , 5°C
Dew Point: 37°F , 3°C
Humidity: 76%
Barometer: 30.52 inHg , 1033.5 hPa
Clouds: Overcast
Visibility: 10 miles , 16 km
Cloud details: Overcast 4200 ft
2018/02/22 09:51 KABE 220951Z 06006KT 10SM OVC042 07/03 A3052 RMK AO2 SLP335 T00720028
KUKT - Quakertown Arp, Pennsylvania, USA
Distance from station: WSW 74mi, 119km
Updated: 02/22/2018 5:15am
Overcast
Overcast
 Wind from NNE
Wind: NNE 7 mph , 11 km/h
Temperature: 45°F , 7°C
Wind Chill: 41°F , 5°C
Dew Point: 37°F , 3°C
Humidity: 76%
Barometer: 30.51 inHg , 1033.2 hPa
Clouds: Overcast
Visibility: 10 miles , 16 km
Cloud details: Few Clouds 3300 ft
Overcast 4200 ft
2018/02/22 10:15 KUKT 221015Z AUTO 02006KT 10SM FEW033 OVC042 07/03 A3051 RMK A01
 
KVAY - Mount Holly, New Jersey, USA
Distance from station: SSW 75mi, 120km
Updated: 02/22/2018 4:54am
Overcast
Overcast
 Wind from NNE
Wind: NNE 9 mph , 15 km/h, Gust: 18 mph , 30 km/h
Temperature: 54°F , 12°C
Dew Point: 39°F , 4°C
Humidity: 58%
Barometer: 30.48 inHg , 1032.2 hPa
Clouds: Overcast
Visibility: 10 miles , 16 km
Cloud details: Overcast 4200 ft
2018/02/22 09:54 KVAY 220954Z AUTO 03008G16KT 10SM OVC042 12/04 A3048 RMK AO2 SLP320 T01170039
KXLL - Allentown Queen, Pennsylvania, USA
Distance from station: WSW 76mi, 122km
Updated: 02/22/2018 5:15am
Overcast
Overcast
 Wind from ENE
Wind: ENE 8 mph , 13 km/h
Temperature: 43°F , 6°C
Wind Chill: 38°F , 3°C
Dew Point: 37°F , 3°C
Humidity: 81%
Barometer: 30.53 inHg , 1033.9 hPa
Clouds: Overcast
Visibility: 10 miles , 16 km
Cloud details: Overcast 4100 ft
2018/02/22 10:15 KXLL 221015Z AUTO 06007KT 10SM OVC041 06/03 A3053 RMK AO2
 
KFOK - Westhampton Beac, New York, USA
Distance from station: E 77mi, 124km
Updated: 02/22/2018 4:53am
Mist, Overcast
Mist, Overcast
 Wind from N
Wind: N 13 mph , 20 km/h
Temperature: 48°F , 9°C
Wind Chill: 43°F , 6°C
Dew Point: 39°F , 4°C
Humidity: 71%
Barometer: 30.51 inHg , 1033.2 hPa
Summary: Mist
Clouds: Overcast
Visibility: 10 miles , 16 km
Cloud details: Overcast 5000 ft
2018/02/22 09:53 KFOK 220953Z AUTO 35011KT 10SM BR OVC050 09/04 A3051 RMK AO2 RAB15E28 SLP333 P0000 T00940044 $
KLOM - Philly Wings F, Pennsylvania, USA
Distance from station: SW 79mi, 128km
Updated: 02/22/2018 5:15am
Overcast
Overcast
 Wind from NE
Wind: NE 5 mph , 7 km/h
Temperature: 46°F , 8°C
Wind Chill: 44°F , 7°C
Dew Point: 34°F , 1°C
Humidity: 62%
Barometer: 30.50 inHg , 1032.8 hPa
Clouds: Overcast
Visibility: 10 miles , 16 km
Cloud details: Overcast 4100 ft
2018/02/22 10:15 KLOM 221015Z AUTO 04004KT 10SM OVC041 08/01 A3050 RMK AO1
 
KMMK - Meriden, Connecticut, USA
Distance from station: NE 80mi, 128km
Updated: 02/22/2018 4:53am
Light rain, Overcast
Light rain, Overcast
 Wind from N
Wind: N 7 mph , 11 km/h
Temperature: 45°F , 7°C
Wind Chill: 41°F , 5°C
Dew Point: 37°F , 3°C
Humidity: 76%
Barometer: 30.54 inHg , 1034.2 hPa
Summary: Light rain
Clouds: Overcast
Visibility: 9 miles , 14 km
Cloud details: Overcast 7000 ft
2018/02/22 09:53 KMMK 220953Z AUTO 01006KT 9SM -RA OVC070 07/03 A3054 RMK AO2 RAB26 SLP342 P0002 T00720028
KPTW - Pottstown, Pennsylvania, USA
Distance from station: WSW 88mi, 141km
Updated: 02/22/2018 4:54am
Overcast
Overcast
 Wind from NE
Wind: NE 7 mph , 11 km/h
Temperature: 48°F , 9°C
Wind Chill: 45°F , 7°C
Dew Point: 32°F , 0°C
Humidity: 54%
Barometer: 30.50 inHg , 1032.8 hPa
Clouds: Overcast
Visibility: 10 miles , 16 km
Cloud details: Overcast 4200 ft
2018/02/22 09:54 KPTW 220954Z AUTO 04006KT 10SM OVC042 09/00 A3050 RMK AO2 SLP325 T00890000
 
KSNC - Chester, Connecticut, USA
Distance from station: ENE 90mi, 146km
Updated: 02/22/2018 5:15am
Light rain, Mostly cloudy
Light rain, Mostly cloudy
 Wind from N
Wind: N 6 mph , 9 km/h
Temperature: 45°F , 7°C
Wind Chill: 42°F , 6°C
Dew Point: 39°F , 4°C
Humidity: 81%
Barometer: 30.54 inHg , 1034.2 hPa
Summary: Light rain
Clouds: Mostly cloudy
Visibility: 6 miles , 10 km
Cloud details: Few Clouds 2000 ft
Partly cloudy 3100 ft
Mostly cloudy 4900 ft
2018/02/22 10:15 KSNC 221015Z AUTO 01005KT 6SM -RA FEW020 SCT031 BKN049 07/04 A3054 RMK AO2
KPHL - Philadelphia, Pennsylvania, USA
Distance from station: SW 91mi, 146km
Updated: 02/22/2018 4:54am
Overcast
Overcast
 Wind from NE
Wind: NE 15 mph , 24 km/h, Gust: 21 mph , 33 km/h
Temperature: 54°F , 12°C
Dew Point: 34°F , 1°C
Humidity: 47%
Barometer: 30.47 inHg , 1031.8 hPa
Clouds: Overcast
Visibility: 10 miles , 16 km
Cloud details: Mostly cloudy 4400 ft
Mostly cloudy 7000 ft
Overcast 11000 ft
2018/02/22 09:54 KPHL 220954Z 05013G18KT 10SM BKN044 BKN070 OVC110 12/01 A3047 RMK AO2 SLP319 T01170006
 
KAVP - Avoca/Wilkes B., Pennsylvania, USA
Distance from station: WNW 91mi, 147km
Updated: 02/22/2018 4:54am
Overcast
Overcast
 Wind from NNE
Wind: NNE 8 mph , 13 km/h
Temperature: 39°F , 4°C
Wind Chill: 33°F , 1°C
Dew Point: 34°F , 1°C
Humidity: 81%
Barometer: 30.51 inHg , 1033.2 hPa
Clouds: Overcast
Visibility: 10 miles , 16 km
Cloud details: Overcast 5500 ft
2018/02/22 09:54 KAVP 220954Z 03007KT 10SM OVC055 04/01 A3051 RMK AO2 SLP333 T00390006
KHFD - Hartford/Brainar, Connecticut, USA
Distance from station: NE 96mi, 155km
Updated: 02/22/2018 4:53am
Light rain, Overcast
Light rain, Overcast
 Wind from NNE
Wind: NNE 8 mph , 13 km/h
Temperature: 46°F , 8°C
Wind Chill: 42°F , 6°C
Dew Point: 36°F , 2°C
Humidity: 66%
Barometer: 30.55 inHg , 1034.5 hPa
Summary: Light rain
Clouds: Overcast
Visibility: 10 miles , 16 km
Cloud details: Mostly cloudy 6500 ft
Overcast 9500 ft
2018/02/22 09:53 KHFD 220953Z AUTO 03007KT 10SM -RA BKN065 OVC095 08/02 A3055 RMK AO2 RAB23 SLP345 P0000 T00780022
 
KHTO - East Hampton, New York, USA
Distance from station: E 96mi, 155km
Updated: 02/22/2018 5:15am
Overcast
Overcast
 Wind from NNE
Wind: NNE 8 mph , 13 km/h
Temperature: 48°F , 9°C
Wind Chill: 44°F , 7°C
Dew Point: 41°F , 5°C
Humidity: 76%
Barometer: 30.51 inHg , 1033.2 hPa
Clouds: Overcast
Visibility: 10 miles , 16 km
Cloud details: Partly cloudy 2300 ft
Overcast 5500 ft
2018/02/22 10:15 KHTO 221015Z AUTO 02007KT 10SM SCT023 OVC055 09/05 A3051 RMK AO2 T00850049
KACY - Atlantic City, New Jersey, USA
Distance from station: SSW 99mi, 160km
Updated: 02/22/2018 5:13am
Overcast
Overcast
 Wind from NE
Wind: NE 10 mph , 17 km/h
Temperature: 57°F , 14°C
Dew Point: 50°F , 10°C
Humidity: 77%
Barometer: 30.45 inHg , 1031.2 hPa
Clouds: Overcast
Visibility: 10 miles , 16 km
Cloud details: Overcast 3000 ft
2018/02/22 10:13 KACY 221013Z 05009KT 10SM OVC030 14/10 A3045 RMK AO2 T01440100 $